Cabrerets ULM

FR-0337 · Lot, Occitanie, 法国

使用的TAF站离机场有59 km的距离
2024年5月20日 05:002024年5月20日 14:00有效
时间
星期一
05:00
40%
星期一
06:00
40%
星期一
07:00
40%
星期一
08:00
星期一
09:00
星期一
10:00
>40%
星期一
11:00
>40%
星期一
12:00
>40%
星期一
13:00
>40%
代码
IFR
IFR
IFR
VFR
VFR
IFR
IFR
IFR
IFR
天气
薄雾
薄雾
薄雾
碎云
碎云
阵雨 雨
阵雨 雨
阵雨 雨
阵雨 雨
能见度
2 km
2 km
2 km
10 km+
10 km+
2,5 km
2,5 km
2,5 km
2,5 km
天花板
8.000 ft
8.000 ft
8.000 ft
8.000 ft
8.000 ft
2.000 ft
2.000 ft
2.000 ft
2.000 ft
Var
Var
Var
Var
Var
Var
220°
220°
220°
220°
220°
220°
220°
220°
220°
220°
220°
220°
速度
2 kt
2 kt
2 kt
5 kt
5 kt
5 kt
5 kt
5 kt
5 kt
阵风
温度/星期日
06:18

原版的

TAF LFSL 200200Z 2003/2012 VRB02KT 9999 FEW030 BKN080
PROB40 TEMPO 2003/2006 2000 BR
BECMG 2006/2008 22005KT
TEMPO 2008/2012 2500 SHRA BKN020TCU

TAF Cabrerets ULM

Cabrerets ULM是,法国中的小机场。 该机场位于纬度44,51459和经度1,59245。 该机场有一条跑道: 17/35. 这个机场没有ICAO代码,我们使用FR-0337作为参考。 机场在Bordeaux FIR中。

该航空气象观测是针对Brive-Souillac在2024年5月20日 04:00, 当地时间进行的。 从2024年5月20日 05:00到2024年5月20日 14:00, 当地时间有效.

预报

  • 在星期一 05:00和14:00之间

    • 风: 可变方向的风很小或没有。
    • 能见度: 10 km 或者更多
    • 乌云: 几云在3.000 ft的高度 和 碎云在8.000 ft的高度.
  • 暂时在星期一 05:00和08:00之间 ({一个机会)

    • 能见度: 2 km
    • 天气: 薄雾
  • 介于星期一 08:00和10:00之间

    • 风: 风来自220°方向,速度为5 kt。
  • 暂时在星期一 10:00和14:00之间

    • 能见度: 2,5 km
    • 天气: 阵雨 雨
    • 乌云: 碎云 高耸的积云在2.000 ft的高度.

白天

今天,太阳从06:20升起,在21:20降落。 这适用于Cabrerets ULM,世界夏令时可能有所不同。 当地时间与世界标准时间之间的时差为+2 小时。 夏令时目前正在进行中。

报告变更